Terminal Aerodrome Forecast
Issued by NWS Bismarck, ND

Home | Current Version | Previous Version | Text Only | Print | Product List | Glossary Off
Versions: 1 2 3 4 5 6 7 8 9 10 11 12 13 14 15

000
FTUS43 KBIS 201740
TAFBIS
TAF
KBIS 201740Z 2018/2118 03004KT P6SM BKN150
     FM202000 12007KT P6SM BKN090 BKN110
     FM210800 14006KT P6SM BKN250 WS020/18035KT
     FM211000 15007KT P6SM BKN250
     FM211700 26013KT P6SM FEW250=

USA.gov is the U.S. government's official web portal to all federal, state and local government web resources and services.